sensor_id;sensor_type;location;lat;lon;timestamp;temperature;humidity
46766;DHT22;32527;51.986;5.842;2022-08-01T00:00:06;19.10;99.90
46766;DHT22;32527;51.986;5.842;2022-08-01T00:02:33;19.20;99.90
46766;DHT22;32527;51.986;5.842;2022-08-01T00:04:58;19.50;99.90
46766;DHT22;32527;51.986;5.842;2022-08-01T00:07:25;18.90;99.90
46766;DHT22;32527;51.986;5.842;2022-08-01T00:09:51;19.60;99.90
46766;DHT22;32527;51.986;5.842;2022-08-01T00:12:17;19.40;99.90
46766;DHT22;32527;51.986;5.842;2022-08-01T00:14:43;18.90;99.90
46766;DHT22;32527;51.986;5.842;2022-08-01T00:17:08;18.90;99.90
46766;DHT22;32527;51.986;5.842;2022-08-01T00:19:34;18.90;99.90
46766;DHT22;32527;51.986;5.842;2022-08-01T00:22:00;19.10;99.90
46766;DHT22;32527;51.986;5.842;2022-08-01T00:24:26;19.20;99.90
46766;DHT22;32527;51.986;5.842;2022-08-01T00:26:51;19.30;99.90
46766;DHT22;32527;51.986;5.842;2022-08-01T00:29:17;18.90;99.90
46766;DHT22;32527;51.986;5.842;2022-08-01T00:31:43;18.90;99.90
46766;DHT22;32527;51.986;5.842;2022-08-01T00:34:08;19.40;99.90
46766;DHT22;32527;51.986;5.842;2022-08-01T00:36:34;18.90;99.90
46766;DHT22;32527;51.986;5.842;2022-08-01T00:38:59;18.90;99.90
46766;DHT22;32527;51.986;5.842;2022-08-01T00:43:51;18.80;99.90
46766;DHT22;32527;51.986;5.842;2022-08-01T00:46:16;19.00;99.90
46766;DHT22;32527;51.986;5.842;2022-08-01T00:48:42;18.70;99.90
46766;DHT22;32527;51.986;5.842;2022-08-01T00:51:08;18.80;99.90
46766;DHT22;32527;51.986;5.842;2022-08-01T00:53:34;18.80;99.90
46766;DHT22;32527;51.986;5.842;2022-08-01T00:56:00;19.50;99.90
46766;DHT22;32527;51.986;5.842;2022-08-01T00:58:27;18.80;99.90
46766;DHT22;32527;51.986;5.842;2022-08-01T01:00:54;18.70;99.90
46766;DHT22;32527;51.986;5.842;2022-08-01T01:03:21;18.90;99.90
46766;DHT22;32527;51.986;5.842;2022-08-01T01:11:49;18.80;99.90
46766;DHT22;32527;51.986;5.842;2022-08-01T01:14:41;18.80;99.90
46766;DHT22;32527;51.986;5.842;2022-08-01T01:17:16;18.90;99.90
46766;DHT22;32527;51.986;5.842;2022-08-01T01:19:51;19.20;99.90
46766;DHT22;32527;51.986;5.842;2022-08-01T01:27:39;18.60;99.90
46766;DHT22;32527;51.986;5.842;2022-08-01T01:30:07;18.80;99.90
46766;DHT22;32527;51.986;5.842;2022-08-01T01:32:38;19.10;99.90
46766;DHT22;32527;51.986;5.842;2022-08-01T01:35:14;18.60;99.90
46766;DHT22;32527;51.986;5.842;2022-08-01T01:37:42;18.70;99.90
46766;DHT22;32527;51.986;5.842;2022-08-01T01:40:11;19.00;99.90
46766;DHT22;32527;51.986;5.842;2022-08-01T01:42:38;19.00;99.90
46766;DHT22;32527;51.986;5.842;2022-08-01T01:45:06;19.10;99.90
46766;DHT22;32527;51.986;5.842;2022-08-01T01:47:33;19.10;99.90
46766;DHT22;32527;51.986;5.842;2022-08-01T01:50:00;18.40;99.90
46766;DHT22;32527;51.986;5.842;2022-08-01T01:52:28;18.80;99.90
46766;DHT22;32527;51.986;5.842;2022-08-01T01:54:56;18.50;99.90
46766;DHT22;32527;51.986;5.842;2022-08-01T01:57:23;18.70;99.90
46766;DHT22;32527;51.986;5.842;2022-08-01T01:59:50;18.80;99.90
46766;DHT22;32527;51.986;5.842;2022-08-01T02:02:16;18.50;99.90
46766;DHT22;32527;51.986;5.842;2022-08-01T02:04:45;18.50;99.90
46766;DHT22;32527;51.986;5.842;2022-08-01T02:07:18;18.20;99.90
46766;DHT22;32527;51.986;5.842;2022-08-01T02:09:46;19.00;99.90
46766;DHT22;32527;51.986;5.842;2022-08-01T02:12:12;18.60;99.90
46766;DHT22;32527;51.986;5.842;2022-08-01T02:14:40;18.90;99.90
46766;DHT22;32527;51.986;5.842;2022-08-01T02:17:11;18.60;99.90
46766;DHT22;32527;51.986;5.842;2022-08-01T02:19:37;18.80;99.90
46766;DHT22;32527;51.986;5.842;2022-08-01T02:22:31;18.60;99.90
46766;DHT22;32527;51.986;5.842;2022-08-01T02:25:16;18.70;99.90
46766;DHT22;32527;51.986;5.842;2022-08-01T02:28:20;18.40;99.90
46766;DHT22;32527;51.986;5.842;2022-08-01T02:30:50;18.50;99.90
46766;DHT22;32527;51.986;5.842;2022-08-01T02:33:19;18.40;99.90
46766;DHT22;32527;51.986;5.842;2022-08-01T02:35:50;18.50;99.90
46766;DHT22;32527;51.986;5.842;2022-08-01T02:38:18;18.30;99.90
46766;DHT22;32527;51.986;5.842;2022-08-01T02:40:47;18.60;99.90
46766;DHT22;32527;51.986;5.842;2022-08-01T02:43:17;18.40;99.90
46766;DHT22;32527;51.986;5.842;2022-08-01T02:45:56;18.50;99.90
46766;DHT22;32527;51.986;5.842;2022-08-01T02:48:25;18.40;99.90
46766;DHT22;32527;51.986;5.842;2022-08-01T02:50:55;18.70;99.90
46766;DHT22;32527;51.986;5.842;2022-08-01T02:53:23;18.20;99.90
46766;DHT22;32527;51.986;5.842;2022-08-01T02:55:51;18.20;99.90
46766;DHT22;32527;51.986;5.842;2022-08-01T02:58:20;18.40;99.90
46766;DHT22;32527;51.986;5.842;2022-08-01T03:00:47;18.20;99.90
46766;DHT22;32527;51.986;5.842;2022-08-01T03:03:14;18.60;99.90
46766;DHT22;32527;51.986;5.842;2022-08-01T03:05:41;18.30;99.90
46766;DHT22;32527;51.986;5.842;2022-08-01T03:08:08;18.30;99.90
46766;DHT22;32527;51.986;5.842;2022-08-01T03:10:37;18.20;99.90
46766;DHT22;32527;51.986;5.842;2022-08-01T03:13:05;18.50;99.90
46766;DHT22;32527;51.986;5.842;2022-08-01T03:15:33;18.40;99.90
46766;DHT22;32527;51.986;5.842;2022-08-01T03:18:00;18.20;99.90
46766;DHT22;32527;51.986;5.842;2022-08-01T03:20:27;18.20;99.90
46766;DHT22;32527;51.986;5.842;2022-08-01T03:22:54;18.30;99.90
46766;DHT22;32527;51.986;5.842;2022-08-01T03:25:22;18.50;99.90
46766;DHT22;32527;51.986;5.842;2022-08-01T03:27:54;18.30;99.90
46766;DHT22;32527;51.986;5.842;2022-08-01T03:30:22;18.40;99.90
46766;DHT22;32527;51.986;5.842;2022-08-01T03:32:48;18.40;99.90
46766;DHT22;32527;51.986;5.842;2022-08-01T03:35:14;18.20;99.90
46766;DHT22;32527;51.986;5.842;2022-08-01T03:37:46;18.10;99.90
46766;DHT22;32527;51.986;5.842;2022-08-01T03:42:50;18.00;99.90
46766;DHT22;32527;51.986;5.842;2022-08-01T03:47:55;18.10;99.90
46766;DHT22;32527;51.986;5.842;2022-08-01T03:52:51;18.10;99.90
46766;DHT22;32527;51.986;5.842;2022-08-01T03:55:23;18.10;99.90
46766;DHT22;32527;51.986;5.842;2022-08-01T03:57:56;18.10;99.90
46766;DHT22;32527;51.986;5.842;2022-08-01T04:00:47;18.10;99.90
46766;DHT22;32527;51.986;5.842;2022-08-01T04:05:57;18.10;99.90
46766;DHT22;32527;51.986;5.842;2022-08-01T04:11:28;18.00;99.90
46766;DHT22;32527;51.986;5.842;2022-08-01T04:14:03;18.00;99.90
46766;DHT22;32527;51.986;5.842;2022-08-01T04:16:33;18.00;99.90
46766;DHT22;32527;51.986;5.842;2022-08-01T04:19:16;18.10;99.90
46766;DHT22;32527;51.986;5.842;2022-08-01T04:24:19;18.00;99.90
46766;DHT22;32527;51.986;5.842;2022-08-01T04:26:52;18.10;99.90
46766;DHT22;32527;51.986;5.842;2022-08-01T04:29:26;18.10;99.90
46766;DHT22;32527;51.986;5.842;2022-08-01T04:31:59;18.10;99.90
46766;DHT22;32527;51.986;5.842;2022-08-01T04:34:47;18.20;99.90
46766;DHT22;32527;51.986;5.842;2022-08-01T04:37:23;18.30;99.90
46766;DHT22;32527;51.986;5.842;2022-08-01T04:39:55;18.30;99.90
46766;DHT22;32527;51.986;5.842;2022-08-01T04:42:29;18.30;99.90
46766;DHT22;32527;51.986;5.842;2022-08-01T04:45:17;17.40;99.90
46766;DHT22;32527;51.986;5.842;2022-08-01T04:48:21;18.40;99.90
46766;DHT22;32527;51.986;5.842;2022-08-01T04:51:19;18.40;99.90
46766;DHT22;32527;51.986;5.842;2022-08-01T04:53:48;18.40;99.90
46766;DHT22;32527;51.986;5.842;2022-08-01T05:02:39;18.50;99.90
46766;DHT22;32527;51.986;5.842;2022-08-01T05:05:42;18.50;99.90
46766;DHT22;32527;51.986;5.842;2022-08-01T05:08:22;18.50;99.90
46766;DHT22;32527;51.986;5.842;2022-08-01T05:10:59;18.60;99.90
46766;DHT22;32527;51.986;5.842;2022-08-01T05:14:18;18.60;99.90
46766;DHT22;32527;51.986;5.842;2022-08-01T05:19:46;18.60;99.90
46766;DHT22;32527;51.986;5.842;2022-08-01T05:24:50;18.70;99.90
46766;DHT22;32527;51.986;5.842;2022-08-01T05:30:09;18.70;99.90
46766;DHT22;32527;51.986;5.842;2022-08-01T05:32:46;18.70;99.90
46766;DHT22;32527;51.986;5.842;2022-08-01T05:37:49;18.80;99.90
46766;DHT22;32527;51.986;5.842;2022-08-01T05:40:26;18.80;99.90
46766;DHT22;32527;51.986;5.842;2022-08-01T06:02:40;18.80;99.90
46766;DHT22;32527;51.986;5.842;2022-08-01T06:14:58;18.90;99.90
46766;DHT22;32527;51.986;5.842;2022-08-01T06:17:36;18.80;99.90
46766;DHT22;32527;51.986;5.842;2022-08-01T06:20:08;18.90;99.90
46766;DHT22;32527;51.986;5.842;2022-08-01T06:25:10;19.60;99.90
46766;DHT22;32527;51.986;5.842;2022-08-01T06:30:07;19.20;99.90
46766;DHT22;32527;51.986;5.842;2022-08-01T06:37:33;19.00;99.90
46766;DHT22;32527;51.986;5.842;2022-08-01T06:40:07;19.00;99.90
46766;DHT22;32527;51.986;5.842;2022-08-01T06:45:16;19.00;99.90
46766;DHT22;32527;51.986;5.842;2022-08-01T06:47:45;19.10;99.90
46766;DHT22;32527;51.986;5.842;2022-08-01T06:55:19;19.60;99.90
46766;DHT22;32527;51.986;5.842;2022-08-01T06:57:50;19.00;99.90
46766;DHT22;32527;51.986;5.842;2022-08-01T07:00:21;19.00;99.90
46766;DHT22;32527;51.986;5.842;2022-08-01T07:02:59;19.00;99.90
46766;DHT22;32527;51.986;5.842;2022-08-01T07:05:31;19.00;99.90
46766;DHT22;32527;51.986;5.842;2022-08-01T07:08:04;19.10;99.90
46766;DHT22;32527;51.986;5.842;2022-08-01T07:10:35;19.30;99.90
46766;DHT22;32527;51.986;5.842;2022-08-01T07:13:08;19.50;99.90
46766;DHT22;32527;51.986;5.842;2022-08-01T07:20:46;19.70;99.90
46766;DHT22;32527;51.986;5.842;2022-08-01T07:23:18;19.70;99.90
46766;DHT22;32527;51.986;5.842;2022-08-01T07:25:49;19.70;99.90
46766;DHT22;32527;51.986;5.842;2022-08-01T07:28:24;19.60;99.90
46766;DHT22;32527;51.986;5.842;2022-08-01T07:30:53;19.50;99.90
46766;DHT22;32527;51.986;5.842;2022-08-01T07:38:14;19.40;99.90
46766;DHT22;32527;51.986;5.842;2022-08-01T07:40:45;19.40;99.90
46766;DHT22;32527;51.986;5.842;2022-08-01T07:43:22;19.30;99.90
46766;DHT22;32527;51.986;5.842;2022-08-01T07:48:21;19.20;99.90
46766;DHT22;32527;51.986;5.842;2022-08-01T07:50:58;19.20;99.90
46766;DHT22;32527;51.986;5.842;2022-08-01T07:53:30;19.20;99.90
46766;DHT22;32527;51.986;5.842;2022-08-01T07:56:05;19.20;99.90
46766;DHT22;32527;51.986;5.842;2022-08-01T07:58:40;19.30;99.90
46766;DHT22;32527;51.986;5.842;2022-08-01T08:01:22;19.40;99.90
46766;DHT22;32527;51.986;5.842;2022-08-01T08:03:54;19.60;99.90
46766;DHT22;32527;51.986;5.842;2022-08-01T08:06:24;19.60;99.90
46766;DHT22;32527;51.986;5.842;2022-08-01T08:16:16;19.60;99.90
46766;DHT22;32527;51.986;5.842;2022-08-01T08:21:18;19.70;99.90
46766;DHT22;32527;51.986;5.842;2022-08-01T08:29:06;19.50;99.90
46766;DHT22;32527;51.986;5.842;2022-08-01T08:36:37;20.20;99.90
46766;DHT22;32527;51.986;5.842;2022-08-01T08:39:20;20.50;99.90
46766;DHT22;32527;51.986;5.842;2022-08-01T08:44:30;20.40;99.90
46766;DHT22;32527;51.986;5.842;2022-08-01T08:47:01;20.60;99.90
46766;DHT22;32527;51.986;5.842;2022-08-01T08:49:28;20.60;99.90
46766;DHT22;32527;51.986;5.842;2022-08-01T08:52:01;20.70;99.90
46766;DHT22;32527;51.986;5.842;2022-08-01T08:56:58;20.50;99.90
46766;DHT22;32527;51.986;5.842;2022-08-01T09:01:57;19.90;99.90
46766;DHT22;32527;51.986;5.842;2022-08-01T09:06:58;18.90;99.90
46766;DHT22;32527;51.986;5.842;2022-08-01T09:17:15;17.90;99.90
46766;DHT22;32527;51.986;5.842;2022-08-01T09:20:12;17.70;99.90
46766;DHT22;32527;51.986;5.842;2022-08-01T09:28:07;17.80;99.90
46766;DHT22;32527;51.986;5.842;2022-08-01T09:30:41;17.80;99.90
46766;DHT22;32527;51.986;5.842;2022-08-01T09:36:20;17.90;99.90
46766;DHT22;32527;51.986;5.842;2022-08-01T09:38:50;17.90;99.90
46766;DHT22;32527;51.986;5.842;2022-08-01T09:41:33;17.90;99.90
46766;DHT22;32527;51.986;5.842;2022-08-01T09:49:02;17.60;99.90
46766;DHT22;32527;51.986;5.842;2022-08-01T09:51:36;17.60;99.90
46766;DHT22;32527;51.986;5.842;2022-08-01T09:54:04;17.70;99.90
46766;DHT22;32527;51.986;5.842;2022-08-01T09:56:41;17.80;99.90
46766;DHT22;32527;51.986;5.842;2022-08-01T10:01:48;18.40;99.90
46766;DHT22;32527;51.986;5.842;2022-08-01T10:04:16;18.10;99.90
46766;DHT22;32527;51.986;5.842;2022-08-01T10:06:44;18.10;99.90
46766;DHT22;32527;51.986;5.842;2022-08-01T10:09:12;18.50;99.90
46766;DHT22;32527;51.986;5.842;2022-08-01T10:11:43;18.60;99.90
46766;DHT22;32527;51.986;5.842;2022-08-01T10:16:38;18.60;99.90
46766;DHT22;32527;51.986;5.842;2022-08-01T10:19:06;18.50;99.90
46766;DHT22;32527;51.986;5.842;2022-08-01T10:21:33;19.10;99.90
46766;DHT22;32527;51.986;5.842;2022-08-01T10:24:01;18.80;99.90
46766;DHT22;32527;51.986;5.842;2022-08-01T10:26:29;18.90;99.90
46766;DHT22;32527;51.986;5.842;2022-08-01T10:31:23;19.30;99.90
46766;DHT22;32527;51.986;5.842;2022-08-01T10:33:50;19.80;99.90
46766;DHT22;32527;51.986;5.842;2022-08-01T10:36:22;19.60;99.90
46766;DHT22;32527;51.986;5.842;2022-08-01T10:38:49;19.50;99.90
46766;DHT22;32527;51.986;5.842;2022-08-01T10:43:42;19.90;99.90
46766;DHT22;32527;51.986;5.842;2022-08-01T10:49:10;20.50;99.90
46766;DHT22;32527;51.986;5.842;2022-08-01T10:51:38;20.20;99.90
46766;DHT22;32527;51.986;5.842;2022-08-01T10:54:09;20.20;99.90
46766;DHT22;32527;51.986;5.842;2022-08-01T10:59:05;20.10;99.90
46766;DHT22;32527;51.986;5.842;2022-08-01T11:01:31;20.40;99.90
46766;DHT22;32527;51.986;5.842;2022-08-01T11:06:42;20.20;99.90
46766;DHT22;32527;51.986;5.842;2022-08-01T11:11:57;20.00;99.90
46766;DHT22;32527;51.986;5.842;2022-08-01T11:14:22;19.80;99.90
46766;DHT22;32527;51.986;5.842;2022-08-01T11:16:48;20.50;99.90
46766;DHT22;32527;51.986;5.842;2022-08-01T11:19:14;20.60;99.90
46766;DHT22;32527;51.986;5.842;2022-08-01T11:27:18;20.40;99.90
46766;DHT22;32527;51.986;5.842;2022-08-01T11:32:55;20.90;99.90
46766;DHT22;32527;51.986;5.842;2022-08-01T11:35:22;21.10;99.90
46766;DHT22;32527;51.986;5.842;2022-08-01T11:37:53;20.50;99.90
46766;DHT22;32527;51.986;5.842;2022-08-01T11:40:24;20.50;99.90
46766;DHT22;32527;51.986;5.842;2022-08-01T11:45:53;20.30;99.90
46766;DHT22;32527;51.986;5.842;2022-08-01T11:48:25;20.10;99.90
46766;DHT22;32527;51.986;5.842;2022-08-01T11:50:52;20.20;99.90
46766;DHT22;32527;51.986;5.842;2022-08-01T11:53:18;20.00;99.90
46766;DHT22;32527;51.986;5.842;2022-08-01T11:55:54;20.00;99.90
46766;DHT22;32527;51.986;5.842;2022-08-01T11:58:26;19.90;99.90
46766;DHT22;32527;51.986;5.842;2022-08-01T12:00:56;19.90;99.90
46766;DHT22;32527;51.986;5.842;2022-08-01T12:03:27;20.00;99.90
46766;DHT22;32527;51.986;5.842;2022-08-01T12:05:53;19.90;99.90
46766;DHT22;32527;51.986;5.842;2022-08-01T12:08:33;20.40;99.90
46766;DHT22;32527;51.986;5.842;2022-08-01T12:11:00;20.10;99.90
46766;DHT22;32527;51.986;5.842;2022-08-01T12:15:53;20.30;99.90
46766;DHT22;32527;51.986;5.842;2022-08-01T12:18:19;21.10;99.90
46766;DHT22;32527;51.986;5.842;2022-08-01T12:20:46;21.30;99.90
46766;DHT22;32527;51.986;5.842;2022-08-01T12:23:15;20.90;99.90
46766;DHT22;32527;51.986;5.842;2022-08-01T12:25:41;21.50;99.90
46766;DHT22;32527;51.986;5.842;2022-08-01T12:28:10;21.30;99.90
46766;DHT22;32527;51.986;5.842;2022-08-01T12:30:37;21.40;99.90
46766;DHT22;32527;51.986;5.842;2022-08-01T12:33:08;21.50;99.90
46766;DHT22;32527;51.986;5.842;2022-08-01T12:35:35;21.70;99.90
46766;DHT22;32527;51.986;5.842;2022-08-01T12:38:05;21.50;99.90
46766;DHT22;32527;51.986;5.842;2022-08-01T12:40:33;21.40;99.90
46766;DHT22;32527;51.986;5.842;2022-08-01T12:43:02;21.60;99.90
46766;DHT22;32527;51.986;5.842;2022-08-01T12:45:34;21.00;99.90
46766;DHT22;32527;51.986;5.842;2022-08-01T12:50:29;20.90;99.90
46766;DHT22;32527;51.986;5.842;2022-08-01T12:52:56;21.40;99.90
46766;DHT22;32527;51.986;5.842;2022-08-01T12:55:26;21.40;99.90
46766;DHT22;32527;51.986;5.842;2022-08-01T12:58:09;21.50;99.90
46766;DHT22;32527;51.986;5.842;2022-08-01T13:00:36;21.60;99.90
46766;DHT22;32527;51.986;5.842;2022-08-01T13:03:06;21.50;99.90
46766;DHT22;32527;51.986;5.842;2022-08-01T13:05:52;21.20;99.90
46766;DHT22;32527;51.986;5.842;2022-08-01T13:08:24;21.30;99.90
46766;DHT22;32527;51.986;5.842;2022-08-01T13:10:50;21.70;99.90
46766;DHT22;32527;51.986;5.842;2022-08-01T13:13:58;21.40;99.90
46766;DHT22;32527;51.986;5.842;2022-08-01T13:16:25;21.50;99.90
46766;DHT22;32527;51.986;5.842;2022-08-01T13:18:53;21.60;99.90
46766;DHT22;32527;51.986;5.842;2022-08-01T13:21:29;21.60;99.90
46766;DHT22;32527;51.986;5.842;2022-08-01T13:24:05;22.00;99.90
46766;DHT22;32527;51.986;5.842;2022-08-01T13:26:47;22.40;99.90
46766;DHT22;32527;51.986;5.842;2022-08-01T13:29:17;22.60;99.90
46766;DHT22;32527;51.986;5.842;2022-08-01T13:31:43;23.10;99.90
46766;DHT22;32527;51.986;5.842;2022-08-01T13:34:09;22.90;99.90
46766;DHT22;32527;51.986;5.842;2022-08-01T13:36:36;23.10;99.90
46766;DHT22;32527;51.986;5.842;2022-08-01T13:39:03;22.80;99.90
46766;DHT22;32527;51.986;5.842;2022-08-01T13:41:48;22.70;99.90
46766;DHT22;32527;51.986;5.842;2022-08-01T13:44:13;23.00;99.90
46766;DHT22;32527;51.986;5.842;2022-08-01T13:46:40;22.90;99.90
46766;DHT22;32527;51.986;5.842;2022-08-01T13:49:07;22.90;99.90
46766;DHT22;32527;51.986;5.842;2022-08-01T13:51:33;23.50;99.90
46766;DHT22;32527;51.986;5.842;2022-08-01T13:53:59;22.40;97.90
46766;DHT22;32527;51.986;5.842;2022-08-01T13:56:25;22.90;98.40
46766;DHT22;32527;51.986;5.842;2022-08-01T13:58:53;23.30;99.70
46766;DHT22;32527;51.986;5.842;2022-08-01T14:01:19;22.90;99.90
46766;DHT22;32527;51.986;5.842;2022-08-01T14:03:46;23.40;99.90
46766;DHT22;32527;51.986;5.842;2022-08-01T14:08:39;22.90;98.70
46766;DHT22;32527;51.986;5.842;2022-08-01T14:13:31;23.00;97.50
46766;DHT22;32527;51.986;5.842;2022-08-01T14:15:58;23.50;97.60
46766;DHT22;32527;51.986;5.842;2022-08-01T14:18:24;23.40;97.70
46766;DHT22;32527;51.986;5.842;2022-08-01T14:20:49;23.50;96.70
46766;DHT22;32527;51.986;5.842;2022-08-01T14:23:15;23.40;93.90
46766;DHT22;32527;51.986;5.842;2022-08-01T14:25:41;23.30;95.50
46766;DHT22;32527;51.986;5.842;2022-08-01T14:28:07;23.20;93.90
46766;DHT22;32527;51.986;5.842;2022-08-01T14:30:33;23.50;93.50
46766;DHT22;32527;51.986;5.842;2022-08-01T14:32:59;23.20;96.00
46766;DHT22;32527;51.986;5.842;2022-08-01T14:35:25;23.00;93.10
46766;DHT22;32527;51.986;5.842;2022-08-01T14:40:17;23.30;91.00
46766;DHT22;32527;51.986;5.842;2022-08-01T14:42:43;22.70;90.10
46766;DHT22;32527;51.986;5.842;2022-08-01T14:45:11;23.00;91.70
46766;DHT22;32527;51.986;5.842;2022-08-01T14:47:42;22.60;91.40
46766;DHT22;32527;51.986;5.842;2022-08-01T14:50:10;22.50;91.10
46766;DHT22;32527;51.986;5.842;2022-08-01T14:52:38;22.60;93.90
46766;DHT22;32527;51.986;5.842;2022-08-01T14:55:05;22.40;94.40
46766;DHT22;32527;51.986;5.842;2022-08-01T14:57:31;22.50;93.80
46766;DHT22;32527;51.986;5.842;2022-08-01T14:59:57;22.60;92.90
46766;DHT22;32527;51.986;5.842;2022-08-01T15:02:23;22.30;91.60
46766;DHT22;32527;51.986;5.842;2022-08-01T15:04:49;22.30;91.30
46766;DHT22;32527;51.986;5.842;2022-08-01T15:07:15;22.50;93.70
46766;DHT22;32527;51.986;5.842;2022-08-01T15:09:41;22.10;94.20
46766;DHT22;32527;51.986;5.842;2022-08-01T15:12:08;22.40;94.10
46766;DHT22;32527;51.986;5.842;2022-08-01T15:14:33;21.90;94.80
46766;DHT22;32527;51.986;5.842;2022-08-01T15:17:18;21.90;92.70
46766;DHT22;32527;51.986;5.842;2022-08-01T15:19:48;22.00;92.40
46766;DHT22;32527;51.986;5.842;2022-08-01T15:22:15;22.60;91.80
46766;DHT22;32527;51.986;5.842;2022-08-01T15:24:41;22.00;90.90
46766;DHT22;32527;51.986;5.842;2022-08-01T15:27:07;22.10;91.90
46766;DHT22;32527;51.986;5.842;2022-08-01T15:29:33;22.10;92.20
46766;DHT22;32527;51.986;5.842;2022-08-01T15:32:00;21.90;91.40
46766;DHT22;32527;51.986;5.842;2022-08-01T15:34:26;22.10;91.50
46766;DHT22;32527;51.986;5.842;2022-08-01T15:36:51;21.80;90.00
46766;DHT22;32527;51.986;5.842;2022-08-01T15:39:17;21.80;90.30
46766;DHT22;32527;51.986;5.842;2022-08-01T15:41:43;21.80;90.90
46766;DHT22;32527;51.986;5.842;2022-08-01T15:44:09;21.80;87.80
46766;DHT22;32527;51.986;5.842;2022-08-01T15:46:37;21.90;86.70
46766;DHT22;32527;51.986;5.842;2022-08-01T15:49:03;22.40;89.10
46766;DHT22;32527;51.986;5.842;2022-08-01T15:51:30;21.70;87.80
46766;DHT22;32527;51.986;5.842;2022-08-01T15:53:56;22.20;89.20
46766;DHT22;32527;51.986;5.842;2022-08-01T15:56:22;21.50;84.80
46766;DHT22;32527;51.986;5.842;2022-08-01T15:58:49;21.50;83.20
46766;DHT22;32527;51.986;5.842;2022-08-01T16:01:15;21.50;85.20
46766;DHT22;32527;51.986;5.842;2022-08-01T16:03:43;21.80;86.80
46766;DHT22;32527;51.986;5.842;2022-08-01T16:08:34;21.80;86.50
46766;DHT22;32527;51.986;5.842;2022-08-01T16:11:00;21.60;84.30
46766;DHT22;32527;51.986;5.842;2022-08-01T16:13:25;21.50;85.20
46766;DHT22;32527;51.986;5.842;2022-08-01T16:15:51;21.50;83.50
46766;DHT22;32527;51.986;5.842;2022-08-01T16:18:17;21.50;84.00
46766;DHT22;32527;51.986;5.842;2022-08-01T16:20:42;21.40;85.10
46766;DHT22;32527;51.986;5.842;2022-08-01T16:23:08;21.40;81.40
46766;DHT22;32527;51.986;5.842;2022-08-01T16:25:34;21.40;81.60
46766;DHT22;32527;51.986;5.842;2022-08-01T16:28:00;21.20;80.90
46766;DHT22;32527;51.986;5.842;2022-08-01T16:30:26;21.30;79.10
46766;DHT22;32527;51.986;5.842;2022-08-01T16:32:52;21.60;78.20
46766;DHT22;32527;51.986;5.842;2022-08-01T16:35:18;21.50;78.50
46766;DHT22;32527;51.986;5.842;2022-08-01T16:37:43;21.30;78.20
46766;DHT22;32527;51.986;5.842;2022-08-01T16:42:35;21.40;76.00
46766;DHT22;32527;51.986;5.842;2022-08-01T16:45:01;21.40;76.20
46766;DHT22;32527;51.986;5.842;2022-08-01T16:47:27;21.20;74.60
46766;DHT22;32527;51.986;5.842;2022-08-01T16:49:53;21.20;77.00
46766;DHT22;32527;51.986;5.842;2022-08-01T16:52:19;21.70;73.90
46766;DHT22;32527;51.986;5.842;2022-08-01T16:57:10;21.00;73.10
46766;DHT22;32527;51.986;5.842;2022-08-01T16:59:37;21.30;75.30
46766;DHT22;32527;51.986;5.842;2022-08-01T17:02:05;21.00;74.70
46766;DHT22;32527;51.986;5.842;2022-08-01T17:04:30;21.60;75.20
46766;DHT22;32527;51.986;5.842;2022-08-01T17:06:56;21.50;74.20
46766;DHT22;32527;51.986;5.842;2022-08-01T17:14:14;21.20;73.50
46766;DHT22;32527;51.986;5.842;2022-08-01T17:16:41;21.10;72.30
46766;DHT22;32527;51.986;5.842;2022-08-01T17:19:06;21.60;72.20
46766;DHT22;32527;51.986;5.842;2022-08-01T17:21:32;21.40;73.50
46766;DHT22;32527;51.986;5.842;2022-08-01T17:23:58;20.70;71.40
46766;DHT22;32527;51.986;5.842;2022-08-01T17:26:24;21.50;69.20
46766;DHT22;32527;51.986;5.842;2022-08-01T17:28:49;21.40;65.50
46766;DHT22;32527;51.986;5.842;2022-08-01T17:31:15;22.00;67.90
46766;DHT22;32527;51.986;5.842;2022-08-01T17:36:08;22.00;67.90
46766;DHT22;32527;51.986;5.842;2022-08-01T17:38:34;21.40;66.70
46766;DHT22;32527;51.986;5.842;2022-08-01T17:41:01;21.50;69.40
46766;DHT22;32527;51.986;5.842;2022-08-01T17:43:26;21.50;69.90
46766;DHT22;32527;51.986;5.842;2022-08-01T17:45:52;21.90;69.20
46766;DHT22;32527;51.986;5.842;2022-08-01T17:48:20;22.60;66.00
46766;DHT22;32527;51.986;5.842;2022-08-01T17:50:47;22.20;66.40
46766;DHT22;32527;51.986;5.842;2022-08-01T17:53:16;21.80;65.70
46766;DHT22;32527;51.986;5.842;2022-08-01T17:55:42;21.40;68.60
46766;DHT22;32527;51.986;5.842;2022-08-01T17:58:08;21.20;69.80
46766;DHT22;32527;51.986;5.842;2022-08-01T18:00:35;20.40;70.00
46766;DHT22;32527;51.986;5.842;2022-08-01T18:03:03;20.40;71.00
46766;DHT22;32527;51.986;5.842;2022-08-01T18:05:32;20.10;70.10
46766;DHT22;32527;51.986;5.842;2022-08-01T18:07:57;20.10;73.20
46766;DHT22;32527;51.986;5.842;2022-08-01T18:10:24;20.10;71.20
46766;DHT22;32527;51.986;5.842;2022-08-01T18:12:50;19.70;72.50
46766;DHT22;32527;51.986;5.842;2022-08-01T18:15:16;20.10;72.80
46766;DHT22;32527;51.986;5.842;2022-08-01T18:17:42;19.70;70.10
46766;DHT22;32527;51.986;5.842;2022-08-01T18:20:08;19.70;71.30
46766;DHT22;32527;51.986;5.842;2022-08-01T18:22:34;19.50;72.40
46766;DHT22;32527;51.986;5.842;2022-08-01T18:25:00;19.80;72.90
46766;DHT22;32527;51.986;5.842;2022-08-01T18:27:26;19.80;72.60
46766;DHT22;32527;51.986;5.842;2022-08-01T18:29:51;20.00;71.60
46766;DHT22;32527;51.986;5.842;2022-08-01T18:32:17;19.60;69.30
46766;DHT22;32527;51.986;5.842;2022-08-01T18:34:43;19.40;70.00
46766;DHT22;32527;51.986;5.842;2022-08-01T18:37:08;19.60;69.20
46766;DHT22;32527;51.986;5.842;2022-08-01T18:39:37;19.30;69.40
46766;DHT22;32527;51.986;5.842;2022-08-01T18:42:03;19.10;72.40
46766;DHT22;32527;51.986;5.842;2022-08-01T18:44:29;19.00;73.10
46766;DHT22;32527;51.986;5.842;2022-08-01T18:46:55;19.00;73.40
46766;DHT22;32527;51.986;5.842;2022-08-01T18:49:21;18.90;74.00
46766;DHT22;32527;51.986;5.842;2022-08-01T18:51:47;18.80;74.90
46766;DHT22;32527;51.986;5.842;2022-08-01T18:54:13;19.20;76.00
46766;DHT22;32527;51.986;5.842;2022-08-01T18:56:40;18.60;77.10
46766;DHT22;32527;51.986;5.842;2022-08-01T18:59:06;19.00;79.00
46766;DHT22;32527;51.986;5.842;2022-08-01T19:01:32;18.90;80.00
46766;DHT22;32527;51.986;5.842;2022-08-01T19:03:57;18.30;82.40
46766;DHT22;32527;51.986;5.842;2022-08-01T19:08:52;18.30;91.60
46766;DHT22;32527;51.986;5.842;2022-08-01T19:11:18;18.30;92.70
46766;DHT22;32527;51.986;5.842;2022-08-01T19:13:43;17.70;93.60
46766;DHT22;32527;51.986;5.842;2022-08-01T19:18:35;17.60;91.80
46766;DHT22;32527;51.986;5.842;2022-08-01T19:21:01;18.10;92.30
46766;DHT22;32527;51.986;5.842;2022-08-01T19:23:31;18.00;92.20
46766;DHT22;32527;51.986;5.842;2022-08-01T19:26:23;17.40;93.90